createdAt,value
2023-04-30T00:00:25.271Z,4.79
2023-04-30T00:02:51.732Z,4.92
2023-04-30T00:05:18.106Z,5.11
2023-04-30T00:07:44.484Z,5.46
2023-04-30T00:10:10.895Z,5.17
2023-04-30T00:12:37.290Z,5.19
2023-04-30T00:15:03.710Z,5.42
2023-04-30T00:17:30.104Z,5.41
2023-04-30T00:19:56.616Z,5.40
2023-04-30T00:22:23.246Z,5.48
2023-04-30T00:24:49.585Z,5.92
2023-04-30T00:27:15.957Z,6.55
2023-04-30T00:29:42.309Z,5.88
2023-04-30T00:32:08.722Z,6.26
2023-04-30T00:34:35.158Z,6.18
2023-04-30T00:37:01.551Z,6.20
2023-04-30T00:39:27.966Z,6.06
2023-04-30T00:41:54.330Z,6.40
2023-04-30T00:44:20.727Z,6.47
2023-04-30T00:46:47.085Z,6.11
2023-04-30T00:49:13.424Z,6.90
2023-04-30T00:51:39.793Z,6.82
2023-04-30T00:54:06.138Z,7.01
2023-04-30T00:56:32.472Z,6.67
2023-04-30T00:58:58.849Z,7.02
2023-04-30T01:01:25.293Z,6.92
2023-04-30T01:03:51.739Z,6.86
2023-04-30T01:06:18.119Z,7.22
2023-04-30T01:08:44.550Z,7.13
2023-04-30T01:11:10.888Z,7.30
2023-04-30T01:13:37.282Z,7.46
2023-04-30T01:16:03.678Z,7.58
2023-04-30T01:18:30.130Z,7.36
2023-04-30T01:20:56.589Z,7.42
2023-04-30T01:23:22.955Z,7.41
2023-04-30T01:25:49.294Z,7.17
2023-04-30T01:28:15.660Z,8.04
2023-04-30T01:30:42.043Z,7.99
2023-04-30T01:33:08.727Z,7.89
2023-04-30T01:35:35.237Z,7.68
2023-04-30T01:38:01.584Z,7.67
2023-04-30T01:40:27.920Z,7.66
2023-04-30T01:42:54.260Z,7.91
2023-04-30T01:45:20.612Z,7.85
2023-04-30T01:47:46.992Z,7.93
2023-04-30T01:50:13.486Z,7.99
2023-04-30T01:52:39.845Z,7.81
2023-04-30T01:55:06.243Z,7.74
2023-04-30T01:57:32.578Z,7.99
2023-04-30T01:59:58.929Z,7.69
2023-04-30T02:02:25.341Z,8.15
2023-04-30T02:04:51.900Z,8.26
2023-04-30T02:07:18.256Z,7.93
2023-04-30T02:09:44.599Z,8.08
2023-04-30T02:12:10.977Z,8.39
2023-04-30T02:14:37.361Z,8.41
2023-04-30T02:17:03.703Z,8.65
2023-04-30T02:19:30.093Z,8.24
2023-04-30T02:21:56.472Z,8.69
2023-04-30T02:24:22.821Z,9.03
2023-04-30T02:26:49.176Z,8.85
2023-04-30T02:29:15.558Z,9.00
2023-04-30T02:31:42.016Z,8.88
2023-04-30T02:34:08.378Z,9.36
2023-04-30T02:36:34.715Z,9.13
2023-04-30T02:39:01.102Z,9.15
2023-04-30T02:41:27.453Z,8.95
2023-04-30T02:43:53.828Z,9.43
2023-04-30T02:46:20.195Z,9.12
2023-04-30T02:48:46.603Z,9.36
2023-04-30T02:51:12.955Z,9.53
2023-04-30T02:53:39.295Z,9.97
2023-04-30T02:56:05.691Z,9.49
2023-04-30T02:58:32.041Z,9.68
2023-04-30T03:00:58.401Z,10.09
2023-04-30T03:03:24.758Z,9.95
2023-04-30T03:05:51.146Z,10.14
2023-04-30T03:08:17.490Z,9.81
2023-04-30T03:10:43.834Z,10.61
2023-04-30T03:13:10.221Z,10.44
2023-04-30T03:15:36.617Z,10.07
2023-04-30T03:18:03.021Z,10.94
2023-04-30T03:20:29.439Z,10.34
2023-04-30T03:22:55.798Z,10.27
2023-04-30T03:25:22.204Z,10.47
2023-04-30T03:27:48.554Z,10.30
2023-04-30T03:30:14.935Z,10.86
2023-04-30T03:32:41.319Z,10.65
2023-04-30T03:35:07.767Z,10.74
2023-04-30T03:37:34.186Z,10.76
2023-04-30T03:40:00.626Z,10.62
2023-04-30T03:42:27.005Z,10.55
2023-04-30T03:44:53.374Z,10.82
2023-04-30T03:47:19.714Z,10.65
2023-04-30T03:49:46.064Z,10.50
2023-04-30T03:52:12.446Z,11.05
2023-04-30T03:54:38.805Z,10.98
2023-04-30T03:57:05.158Z,10.95
2023-04-30T03:59:31.496Z,11.00
2023-04-30T04:01:57.875Z,11.00
2023-04-30T04:04:24.339Z,10.96
2023-04-30T04:06:50.749Z,11.32
2023-04-30T04:09:17.090Z,11.75
2023-04-30T04:11:43.476Z,11.09
2023-04-30T04:14:09.829Z,11.33
2023-04-30T04:16:36.211Z,11.21
2023-04-30T04:19:02.588Z,11.56
2023-04-30T04:21:28.956Z,11.29
2023-04-30T04:23:55.300Z,11.52
2023-04-30T04:26:21.682Z,11.99
2023-04-30T04:28:48.067Z,11.81
2023-04-30T04:31:14.467Z,11.35
2023-04-30T04:33:40.816Z,11.46
2023-04-30T04:36:07.158Z,11.49
2023-04-30T04:38:33.549Z,11.54
2023-04-30T04:40:59.905Z,11.79
2023-04-30T04:43:26.265Z,11.72
2023-04-30T04:45:52.705Z,12.22
2023-04-30T04:48:19.077Z,11.66
2023-04-30T04:50:45.476Z,11.55
2023-04-30T04:53:11.841Z,11.66
2023-04-30T04:55:38.182Z,11.65
2023-04-30T04:58:04.521Z,12.04
2023-04-30T05:00:30.906Z,11.92
2023-04-30T05:02:57.301Z,11.81
2023-04-30T05:05:23.790Z,12.16
2023-04-30T05:07:50.134Z,12.30
2023-04-30T05:10:16.489Z,11.98
2023-04-30T05:12:42.877Z,12.70
2023-04-30T05:15:09.233Z,12.07
2023-04-30T05:17:35.723Z,11.93
2023-04-30T05:20:02.157Z,12.33
2023-04-30T05:22:28.542Z,12.19
2023-04-30T05:24:54.938Z,11.95
2023-04-30T05:27:21.335Z,11.76
2023-04-30T05:29:47.740Z,12.40
2023-04-30T05:32:14.183Z,12.27
2023-04-30T05:34:40.609Z,12.39
2023-04-30T05:37:06.983Z,12.39
2023-04-30T05:39:33.340Z,12.02
2023-04-30T05:41:59.695Z,11.90
2023-04-30T05:44:26.026Z,12.17
2023-04-30T05:46:52.427Z,12.35
2023-04-30T05:49:18.786Z,12.39
2023-04-30T05:51:45.183Z,12.11
2023-04-30T05:54:11.584Z,12.73
2023-04-30T05:56:37.983Z,12.89
2023-04-30T05:59:04.344Z,12.99
2023-04-30T06:01:30.720Z,12.35
2023-04-30T06:03:57.069Z,12.83
2023-04-30T06:06:23.419Z,12.75
2023-04-30T06:08:49.824Z,12.91
2023-04-30T06:11:16.209Z,13.02
2023-04-30T06:13:42.598Z,12.57
2023-04-30T06:16:09.110Z,12.20
2023-04-30T06:18:35.491Z,12.58
2023-04-30T06:21:01.873Z,12.14
2023-04-30T06:23:28.214Z,13.82
2023-04-30T06:25:54.555Z,15.13
2023-04-30T06:28:20.894Z,12.59
2023-04-30T06:30:47.246Z,12.31
2023-04-30T06:33:13.616Z,12.34
2023-04-30T06:35:40.028Z,12.83
2023-04-30T06:38:06.437Z,12.55
2023-04-30T06:40:32.848Z,12.50
2023-04-30T06:42:59.217Z,13.14
2023-04-30T06:45:25.558Z,12.91
2023-04-30T06:47:52.090Z,12.86
2023-04-30T06:50:18.546Z,11.91
2023-04-30T06:52:44.929Z,12.21
2023-04-30T06:55:11.273Z,12.28
2023-04-30T06:57:37.691Z,12.67
2023-04-30T07:00:04.088Z,12.50
2023-04-30T07:02:30.512Z,12.90
2023-04-30T07:04:56.928Z,12.95
2023-04-30T07:07:23.283Z,12.66
2023-04-30T07:09:51.485Z,12.58
2023-04-30T07:12:18.050Z,12.63
2023-04-30T07:14:44.410Z,12.63
2023-04-30T07:17:10.804Z,12.40
2023-04-30T07:19:37.197Z,12.99
2023-04-30T07:22:03.540Z,13.33
2023-04-30T07:24:29.891Z,13.60
2023-04-30T07:26:56.241Z,12.59
2023-04-30T07:29:22.591Z,12.83
2023-04-30T07:31:48.979Z,13.21
2023-04-30T07:34:15.341Z,12.92
2023-04-30T07:36:41.734Z,13.33
2023-04-30T07:39:08.147Z,13.65
2023-04-30T07:41:34.525Z,12.88
2023-04-30T07:44:00.913Z,12.73
2023-04-30T07:46:27.313Z,12.87
2023-04-30T07:48:53.657Z,12.56
2023-04-30T07:51:20.035Z,12.75
2023-04-30T07:53:46.392Z,12.85
2023-04-30T07:56:12.729Z,12.90
2023-04-30T07:58:39.091Z,13.27
2023-04-30T08:01:05.456Z,12.88
2023-04-30T08:03:31.957Z,13.51
2023-04-30T08:05:58.445Z,13.17
2023-04-30T08:08:24.798Z,12.54
2023-04-30T08:10:51.183Z,13.05
2023-04-30T08:13:17.544Z,12.55
2023-04-30T08:15:43.927Z,12.27
2023-04-30T08:18:10.383Z,12.28
2023-04-30T08:20:38.557Z,12.45
2023-04-30T08:23:05.127Z,12.06
2023-04-30T08:25:31.514Z,12.54
2023-04-30T08:27:57.903Z,12.84
2023-04-30T08:30:24.294Z,12.35
2023-04-30T08:32:50.701Z,12.03
2023-04-30T08:35:17.072Z,11.83
2023-04-30T08:37:43.436Z,10.83
2023-04-30T08:40:09.887Z,11.65
2023-04-30T08:42:36.296Z,11.54
2023-04-30T08:45:02.690Z,11.58
2023-04-30T08:47:29.091Z,11.10
2023-04-30T08:49:55.767Z,10.97
2023-04-30T08:52:22.288Z,10.77
2023-04-30T08:54:48.626Z,10.95
2023-04-30T08:57:15.001Z,11.03
2023-04-30T08:59:41.355Z,10.52
2023-04-30T09:02:07.900Z,10.26
2023-04-30T09:04:34.316Z,10.23
2023-04-30T09:07:01.697Z,10.32
2023-04-30T09:09:29.219Z,9.99
2023-04-30T09:11:55.590Z,9.56
2023-04-30T09:14:21.944Z,10.12
2023-04-30T09:16:48.329Z,10.05
2023-04-30T09:19:14.730Z,9.97
2023-04-30T09:21:41.085Z,10.48
2023-04-30T09:24:07.470Z,10.61
2023-04-30T09:26:33.827Z,10.29
2023-04-30T09:29:00.199Z,10.47
2023-04-30T09:31:26.598Z,10.20
2023-04-30T09:33:52.964Z,10.43
2023-04-30T09:36:19.344Z,10.34
2023-04-30T09:38:45.690Z,9.91
2023-04-30T09:41:12.074Z,9.67
2023-04-30T09:43:38.429Z,9.70
2023-04-30T09:46:04.850Z,9.55
2023-04-30T09:48:31.269Z,9.41
2023-04-30T09:50:57.724Z,8.79
2023-04-30T09:53:24.208Z,8.99
2023-04-30T09:55:50.600Z,9.12
2023-04-30T09:58:16.934Z,9.32
2023-04-30T10:00:43.336Z,9.69
2023-04-30T10:03:09.798Z,9.52
2023-04-30T10:05:36.258Z,9.54
2023-04-30T10:08:03.735Z,9.11
2023-04-30T10:10:30.121Z,9.39
2023-04-30T10:12:56.494Z,9.16
2023-04-30T10:15:22.903Z,9.06
2023-04-30T10:17:49.262Z,8.88
2023-04-30T10:20:15.677Z,8.82
2023-04-30T10:22:42.030Z,8.64
2023-04-30T10:25:08.413Z,8.32
2023-04-30T10:27:34.796Z,8.40
2023-04-30T10:30:01.165Z,9.19
2023-04-30T10:32:27.669Z,8.66
2023-04-30T10:34:54.188Z,8.93
2023-04-30T10:37:20.589Z,9.09
2023-04-30T10:39:46.970Z,9.64
2023-04-30T10:42:13.356Z,9.73
2023-04-30T10:44:39.775Z,9.74
2023-04-30T10:47:06.168Z,9.43
2023-04-30T10:49:32.553Z,9.35
2023-04-30T10:51:58.940Z,9.22
2023-04-30T10:54:25.300Z,9.52
2023-04-30T10:56:51.635Z,9.90
2023-04-30T10:59:18.009Z,9.75
2023-04-30T11:01:44.467Z,9.79
2023-04-30T11:04:10.895Z,9.96
2023-04-30T11:06:37.356Z,9.65
2023-04-30T11:09:03.984Z,10.39
2023-04-30T11:11:30.331Z,9.90
2023-04-30T11:13:56.709Z,9.17
2023-04-30T11:16:23.109Z,9.03
2023-04-30T11:18:49.490Z,9.89
2023-04-30T11:21:15.900Z,9.32
2023-04-30T11:23:42.441Z,8.90
2023-04-30T11:26:08.933Z,9.15
2023-04-30T11:28:35.289Z,8.90
2023-04-30T11:31:01.737Z,8.91
2023-04-30T11:33:28.158Z,9.77
2023-04-30T11:35:54.559Z,9.06
2023-04-30T11:38:20.964Z,9.11
2023-04-30T11:40:47.322Z,9.30
2023-04-30T11:43:13.668Z,9.17
2023-04-30T11:45:40.026Z,9.05
2023-04-30T11:48:06.432Z,8.88
2023-04-30T11:50:32.840Z,8.97
2023-04-30T11:52:59.249Z,8.81
2023-04-30T11:55:25.631Z,9.06
2023-04-30T11:57:52.040Z,8.71
2023-04-30T12:00:18.418Z,8.82
2023-04-30T12:02:44.930Z,8.53
2023-04-30T12:05:11.461Z,8.99
2023-04-30T12:07:37.860Z,8.70
2023-04-30T12:10:04.262Z,8.40
2023-04-30T12:12:30.639Z,8.65
2023-04-30T12:14:57.016Z,8.77
2023-04-30T12:17:23.445Z,8.27
2023-04-30T12:19:49.835Z,7.94
2023-04-30T12:22:16.171Z,7.16
2023-04-30T12:24:42.501Z,6.51
2023-04-30T12:27:08.879Z,6.51
2023-04-30T12:29:35.238Z,6.50
2023-04-30T12:32:01.633Z,6.48
2023-04-30T12:34:28.063Z,6.41
2023-04-30T12:36:54.403Z,6.18
2023-04-30T12:39:20.729Z,7.60
2023-04-30T12:41:47.074Z,7.23
2023-04-30T12:44:13.486Z,7.84
2023-04-30T12:46:39.904Z,8.39
2023-04-30T12:49:06.267Z,8.62
2023-04-30T12:51:32.611Z,8.57
2023-04-30T12:53:58.983Z,8.50
2023-04-30T12:56:25.336Z,8.14
2023-04-30T12:58:51.680Z,8.14
2023-04-30T13:01:18.152Z,8.15
2023-04-30T13:03:44.714Z,8.40
2023-04-30T13:06:11.312Z,8.33
2023-04-30T13:08:49.645Z,8.11
2023-04-30T13:11:23.030Z,7.87
2023-04-30T13:13:49.374Z,7.72
2023-04-30T13:16:15.793Z,8.14
2023-04-30T13:18:42.177Z,7.56
2023-04-30T13:21:08.510Z,8.67
2023-04-30T13:23:44.542Z,8.11
2023-04-30T13:26:18.061Z,8.33
2023-04-30T13:28:44.472Z,7.64
2023-04-30T13:31:10.872Z,8.03
2023-04-30T13:33:37.264Z,7.57
2023-04-30T13:36:03.681Z,7.81
2023-04-30T13:38:30.039Z,8.02
2023-04-30T13:40:56.382Z,7.47
2023-04-30T13:43:22.726Z,7.79
2023-04-30T13:45:49.077Z,7.91
2023-04-30T13:48:15.416Z,7.89
2023-04-30T13:50:41.748Z,7.90
2023-04-30T13:53:08.139Z,7.99
2023-04-30T13:55:34.482Z,7.70
2023-04-30T13:58:00.837Z,8.07
2023-04-30T14:00:27.270Z,8.07
2023-04-30T14:02:53.777Z,7.88
2023-04-30T14:05:20.182Z,7.31
2023-04-30T14:07:46.557Z,7.12
2023-04-30T14:10:12.908Z,7.18
2023-04-30T14:12:39.293Z,7.47
2023-04-30T14:15:05.676Z,6.97
2023-04-30T14:17:32.159Z,7.06
2023-04-30T14:19:58.590Z,6.60
2023-04-30T14:22:24.972Z,7.25
2023-04-30T14:24:51.326Z,7.10
2023-04-30T14:27:17.662Z,6.83
2023-04-30T14:29:43.990Z,7.03
2023-04-30T14:32:10.430Z,7.28
2023-04-30T14:34:36.898Z,7.18
2023-04-30T14:37:03.313Z,7.15
2023-04-30T14:39:29.654Z,7.12
2023-04-30T14:41:56.040Z,7.12
2023-04-30T14:44:22.386Z,6.98
2023-04-30T14:46:48.760Z,6.77
2023-04-30T14:49:15.125Z,7.20
2023-04-30T14:51:41.474Z,7.17
2023-04-30T14:54:07.873Z,7.24
2023-04-30T14:56:34.215Z,7.33
2023-04-30T14:59:00.589Z,7.77
2023-04-30T15:01:28.489Z,7.49
2023-04-30T15:03:55.176Z,7.35
2023-04-30T15:06:21.639Z,7.29
2023-04-30T15:08:48.014Z,7.41
2023-04-30T15:11:14.350Z,7.33
2023-04-30T15:13:40.719Z,7.73
2023-04-30T15:16:07.276Z,7.68
2023-04-30T15:18:33.686Z,7.56
2023-04-30T15:21:00.035Z,7.50
2023-04-30T15:23:26.441Z,7.93
2023-04-30T15:25:52.818Z,7.60
2023-04-30T15:28:19.185Z,8.08
2023-04-30T15:30:45.528Z,7.88
2023-04-30T15:33:11.947Z,7.84
2023-04-30T15:35:38.365Z,7.49
2023-04-30T15:38:04.752Z,6.99
2023-04-30T15:40:31.094Z,7.88
2023-04-30T15:42:57.458Z,7.52
2023-04-30T15:45:23.844Z,7.53
2023-04-30T15:47:50.278Z,7.51
2023-04-30T15:50:16.706Z,7.61
2023-04-30T15:52:43.097Z,7.75
2023-04-30T15:55:09.495Z,8.01
2023-04-30T15:57:35.920Z,7.80
2023-04-30T16:00:02.301Z,8.03
2023-04-30T16:02:28.709Z,7.86
2023-04-30T16:04:55.097Z,7.78
2023-04-30T16:07:21.430Z,7.53
2023-04-30T16:09:47.812Z,7.43
2023-04-30T16:12:14.203Z,7.63
2023-04-30T16:14:40.587Z,7.58
2023-04-30T16:17:06.987Z,7.38
2023-04-30T16:19:33.363Z,7.21
2023-04-30T16:21:59.893Z,7.16
2023-04-30T16:24:26.272Z,7.17
2023-04-30T16:26:52.624Z,6.14
2023-04-30T16:29:18.991Z,6.15
2023-04-30T16:31:45.386Z,6.06
2023-04-30T16:34:11.759Z,6.17
2023-04-30T16:36:38.113Z,5.74
2023-04-30T16:39:04.453Z,6.18
2023-04-30T16:41:30.934Z,6.48
2023-04-30T16:43:57.293Z,6.22
2023-04-30T16:46:23.668Z,6.26
2023-04-30T16:48:50.030Z,6.24
2023-04-30T16:51:16.416Z,6.10
2023-04-30T16:53:42.779Z,6.19
2023-04-30T16:56:09.113Z,6.17
2023-04-30T16:58:35.470Z,7.38
2023-04-30T17:01:01.852Z,8.01
2023-04-30T17:03:28.391Z,8.10
2023-04-30T17:05:54.896Z,8.66
2023-04-30T17:08:21.339Z,9.08
2023-04-30T17:10:47.760Z,8.69
2023-04-30T17:13:14.197Z,6.98
2023-04-30T17:15:40.607Z,7.12
2023-04-30T17:18:07.034Z,6.37
2023-04-30T17:20:33.449Z,6.52
2023-04-30T17:22:59.804Z,6.05
2023-04-30T17:25:26.146Z,5.99
2023-04-30T17:27:52.555Z,6.29
2023-04-30T17:30:18.916Z,9.47
2023-04-30T17:32:45.328Z,9.33
2023-04-30T17:35:11.732Z,6.34
2023-04-30T17:37:38.130Z,6.20
2023-04-30T17:40:04.511Z,6.70
2023-04-30T17:42:30.911Z,7.15
2023-04-30T17:44:57.303Z,7.16
2023-04-30T17:47:23.706Z,7.83
2023-04-30T17:49:50.102Z,9.09
2023-04-30T17:52:16.439Z,8.87
2023-04-30T17:54:42.811Z,8.97
2023-04-30T17:57:09.158Z,8.94
2023-04-30T17:59:35.549Z,8.35
2023-04-30T18:02:01.954Z,8.08
2023-04-30T18:04:28.415Z,8.15
2023-04-30T18:06:54.769Z,8.64
2023-04-30T18:09:21.113Z,8.96
2023-04-30T18:11:47.495Z,8.45
2023-04-30T18:14:13.870Z,8.22
2023-04-30T18:16:40.302Z,7.51
2023-04-30T18:19:06.674Z,6.28
2023-04-30T18:21:33.054Z,6.18
2023-04-30T18:23:59.441Z,6.25
2023-04-30T18:26:25.807Z,6.62
2023-04-30T18:28:52.174Z,7.35
2023-04-30T18:31:18.568Z,6.97
2023-04-30T18:33:44.958Z,7.56
2023-04-30T18:36:11.343Z,7.70
2023-04-30T18:38:37.711Z,9.57
2023-04-30T18:41:04.118Z,8.39
2023-04-30T18:43:30.466Z,10.84
2023-04-30T18:45:56.852Z,14.95
2023-04-30T18:48:23.270Z,15.89
2023-04-30T18:50:49.698Z,13.31
2023-04-30T18:53:16.042Z,8.91
2023-04-30T18:55:42.420Z,7.15
2023-04-30T18:58:08.817Z,7.01
2023-04-30T19:00:35.228Z,7.89
2023-04-30T19:03:01.762Z,7.56
2023-04-30T19:05:28.209Z,7.16
2023-04-30T19:07:54.546Z,6.82
2023-04-30T19:10:20.954Z,6.82
2023-04-30T19:12:47.344Z,7.03
2023-04-30T19:15:13.749Z,6.70
2023-04-30T19:17:40.215Z,7.12
2023-04-30T19:20:06.622Z,6.86
2023-04-30T19:22:32.958Z,6.86
2023-04-30T19:24:59.315Z,6.64
2023-04-30T19:27:25.652Z,7.00
2023-04-30T19:29:52.036Z,6.46
2023-04-30T19:32:18.433Z,6.35
2023-04-30T19:34:44.807Z,6.44
2023-04-30T19:37:11.189Z,6.48
2023-04-30T19:39:37.578Z,6.00
2023-04-30T19:42:03.957Z,6.14
2023-04-30T19:44:30.318Z,6.95
2023-04-30T19:46:56.689Z,6.97
2023-04-30T19:49:24.656Z,7.52
2023-04-30T19:51:52.328Z,6.76
2023-04-30T19:54:18.691Z,7.15
2023-04-30T19:56:45.066Z,7.32
2023-04-30T19:59:11.462Z,6.98
2023-04-30T20:01:37.890Z,6.76
2023-04-30T20:04:04.362Z,7.17
2023-04-30T20:06:30.888Z,6.57
2023-04-30T20:08:57.319Z,6.16
2023-04-30T20:11:23.697Z,5.97
2023-04-30T20:13:50.069Z,5.68
2023-04-30T20:16:16.454Z,5.34
2023-04-30T20:18:42.829Z,5.24
2023-04-30T20:21:09.169Z,5.28
2023-04-30T20:23:35.499Z,5.55
2023-04-30T20:26:01.843Z,5.66
2023-04-30T20:28:28.248Z,7.11
2023-04-30T20:30:54.598Z,7.19
2023-04-30T20:33:21.001Z,6.98
2023-04-30T20:35:47.391Z,6.74
2023-04-30T20:38:13.827Z,7.14
2023-04-30T20:40:40.223Z,7.16
2023-04-30T20:43:06.616Z,6.75
2023-04-30T20:45:32.966Z,7.01
2023-04-30T20:47:59.381Z,7.21
2023-04-30T20:50:25.818Z,7.14
2023-04-30T20:52:52.167Z,7.30
2023-04-30T20:55:18.545Z,6.86
2023-04-30T20:57:44.903Z,6.94
2023-04-30T21:00:11.233Z,6.90
2023-04-30T21:02:37.796Z,6.68
2023-04-30T21:05:04.260Z,6.34
2023-04-30T21:07:30.618Z,7.13
2023-04-30T21:09:57.282Z,6.74
2023-04-30T21:12:23.884Z,6.89
2023-04-30T21:14:50.275Z,6.94
2023-04-30T21:17:16.675Z,6.56
2023-04-30T21:19:43.062Z,6.74
2023-04-30T21:22:09.427Z,7.19
2023-04-30T21:24:35.786Z,7.04
2023-04-30T21:27:02.194Z,7.20
2023-04-30T21:29:28.557Z,6.80
2023-04-30T21:31:54.903Z,7.15
2023-04-30T21:34:21.250Z,7.51
2023-04-30T21:36:47.612Z,6.55
2023-04-30T21:39:14.009Z,6.77
2023-04-30T21:41:40.349Z,6.70
2023-04-30T21:44:06.731Z,6.36
2023-04-30T21:46:33.148Z,7.14
2023-04-30T21:48:59.542Z,7.39
2023-04-30T21:51:25.888Z,7.86
2023-04-30T21:53:52.247Z,7.69
2023-04-30T21:56:20.991Z,7.36
2023-04-30T21:58:48.022Z,7.32
2023-04-30T22:01:14.456Z,7.64
2023-04-30T22:03:40.942Z,8.31
2023-04-30T22:06:07.430Z,7.91
2023-04-30T22:08:33.898Z,8.05
2023-04-30T22:11:00.290Z,7.88
2023-04-30T22:13:26.661Z,7.97
2023-04-30T22:15:53.059Z,8.77
2023-04-30T22:18:19.472Z,8.26
2023-04-30T22:20:45.874Z,8.11
2023-04-30T22:23:12.212Z,8.04
2023-04-30T22:25:38.565Z,7.95
2023-04-30T22:28:04.958Z,8.05
2023-04-30T22:30:31.353Z,7.75
2023-04-30T22:32:57.806Z,8.22
2023-04-30T22:35:24.242Z,8.17
2023-04-30T22:37:50.659Z,8.55
2023-04-30T22:40:17.006Z,8.80
2023-04-30T22:42:43.404Z,8.97
2023-04-30T22:45:09.787Z,8.67
2023-04-30T22:47:36.174Z,8.89
2023-04-30T22:50:02.598Z,9.00
2023-04-30T22:52:28.948Z,9.12
2023-04-30T22:54:55.345Z,8.70
2023-04-30T22:57:21.704Z,9.07
2023-04-30T22:59:48.050Z,8.95
2023-04-30T23:02:14.387Z,8.52
2023-04-30T23:04:40.766Z,8.61
2023-04-30T23:07:07.125Z,8.76
2023-04-30T23:09:33.503Z,8.79
2023-04-30T23:11:59.874Z,8.67
2023-04-30T23:14:26.249Z,8.74
2023-04-30T23:16:52.705Z,8.76
2023-04-30T23:19:19.152Z,8.00
2023-04-30T23:21:45.516Z,8.25
2023-04-30T23:24:11.861Z,8.53
2023-04-30T23:26:38.246Z,8.37
2023-04-30T23:29:04.611Z,8.43
2023-04-30T23:31:30.972Z,8.66
2023-04-30T23:33:57.350Z,8.45
2023-04-30T23:36:23.701Z,8.28
2023-04-30T23:38:50.079Z,8.62
2023-04-30T23:41:16.425Z,8.97
2023-04-30T23:43:42.760Z,9.18
2023-04-30T23:46:09.174Z,8.87
2023-04-30T23:48:35.563Z,9.21
2023-04-30T23:51:01.928Z,8.63
2023-04-30T23:53:28.334Z,8.46
2023-04-30T23:55:54.675Z,8.44
2023-04-30T23:58:21.091Z,8.87
